sensor_id;sensor_type;location;lat;lon;timestamp;pressure;altitude;pressure_sealevel;temperature;humidity
20003;BME280;10162;41.600;23.806;2023-08-12T00:05:20;95648.84;;;17.03;100.00
20003;BME280;10162;41.600;23.806;2023-08-12T00:07:46;95649.38;;;16.93;100.00
20003;BME280;10162;41.600;23.806;2023-08-12T00:10:14;95660.22;;;17.04;100.00
20003;BME280;10162;41.600;23.806;2023-08-12T00:12:41;95642.19;;;17.19;100.00
20003;BME280;10162;41.600;23.806;2023-08-12T00:15:08;95645.06;;;16.99;100.00
20003;BME280;10162;41.600;23.806;2023-08-12T00:17:35;95652.00;;;17.12;100.00
20003;BME280;10162;41.600;23.806;2023-08-12T00:20:04;95636.31;;;16.80;100.00
20003;BME280;10162;41.600;23.806;2023-08-12T00:22:42;95645.59;;;16.46;100.00
20003;BME280;10162;41.600;23.806;2023-08-12T00:25:08;95634.75;;;16.36;100.00
20003;BME280;10162;41.600;23.806;2023-08-12T00:27:38;95634.25;;;16.46;100.00
20003;BME280;10162;41.600;23.806;2023-08-12T00:30:05;95638.69;;;16.70;100.00
20003;BME280;10162;41.600;23.806;2023-08-12T00:32:57;95638.41;;;16.78;100.00
20003;BME280;10162;41.600;23.806;2023-08-12T00:35:23;95634.28;;;17.01;100.00
20003;BME280;10162;41.600;23.806;2023-08-12T00:37:49;95628.25;;;17.12;100.00
20003;BME280;10162;41.600;23.806;2023-08-12T00:40:15;95630.81;;;16.82;100.00
20003;BME280;10162;41.600;23.806;2023-08-12T00:42:55;95641.03;;;16.97;100.00
20003;BME280;10162;41.600;23.806;2023-08-12T00:45:23;95639.91;;;16.86;100.00
20003;BME280;10162;41.600;23.806;2023-08-12T00:47:49;95639.78;;;16.81;100.00
20003;BME280;10162;41.600;23.806;2023-08-12T00:50:16;95630.66;;;17.13;100.00
20003;BME280;10162;41.600;23.806;2023-08-12T00:52:43;95638.13;;;17.16;100.00
20003;BME280;10162;41.600;23.806;2023-08-12T00:55:09;95634.06;;;17.02;100.00
20003;BME280;10162;41.600;23.806;2023-08-12T00:57:35;95630.53;;;16.90;100.00
20003;BME280;10162;41.600;23.806;2023-08-12T01:00:03;95633.25;;;17.02;100.00
20003;BME280;10162;41.600;23.806;2023-08-12T01:02:44;95637.41;;;17.09;100.00
20003;BME280;10162;41.600;23.806;2023-08-12T01:05:15;95631.34;;;16.72;100.00
20003;BME280;10162;41.600;23.806;2023-08-12T01:07:42;95631.22;;;16.67;100.00
20003;BME280;10162;41.600;23.806;2023-08-12T01:10:08;95628.69;;;16.54;100.00
20003;BME280;10162;41.600;23.806;2023-08-12T01:12:56;95627.66;;;16.55;100.00
20003;BME280;10162;41.600;23.806;2023-08-12T01:15:26;95633.53;;;16.75;100.00
20003;BME280;10162;41.600;23.806;2023-08-12T01:17:53;95632.44;;;16.65;100.00
20003;BME280;10162;41.600;23.806;2023-08-12T01:20:22;95630.72;;;16.52;100.00
20003;BME280;10162;41.600;23.806;2023-08-12T01:25:55;95629.53;;;16.73;100.00
20003;BME280;10162;41.600;23.806;2023-08-12T01:28:21;95612.41;;;16.57;100.00
20003;BME280;10162;41.600;23.806;2023-08-12T01:30:55;95615.75;;;16.28;100.00
20003;BME280;10162;41.600;23.806;2023-08-12T01:33:40;95624.38;;;16.35;100.00
20003;BME280;10162;41.600;23.806;2023-08-12T01:36:13;95623.19;;;16.56;100.00
20003;BME280;10162;41.600;23.806;2023-08-12T01:38:41;95624.66;;;16.51;100.00
20003;BME280;10162;41.600;23.806;2023-08-12T01:41:16;95628.81;;;16.41;100.00
20003;BME280;10162;41.600;23.806;2023-08-12T01:43:46;95632.41;;;16.46;100.00
20003;BME280;10162;41.600;23.806;2023-08-12T01:46:11;95632.09;;;16.36;100.00
20003;BME280;10162;41.600;23.806;2023-08-12T01:48:37;95623.59;;;16.52;100.00
20003;BME280;10162;41.600;23.806;2023-08-12T01:51:11;95634.94;;;16.35;100.00
20003;BME280;10162;41.600;23.806;2023-08-12T01:53:41;95628.03;;;16.16;100.00
20003;BME280;10162;41.600;23.806;2023-08-12T01:56:07;95625.81;;;15.94;100.00
20003;BME280;10162;41.600;23.806;2023-08-12T01:58:35;95623.53;;;15.98;100.00
20003;BME280;10162;41.600;23.806;2023-08-12T02:03:54;95626.66;;;15.88;100.00
20003;BME280;10162;41.600;23.806;2023-08-12T02:06:20;95618.94;;;15.87;100.00
20003;BME280;10162;41.600;23.806;2023-08-12T02:08:46;95631.53;;;16.09;100.00
20003;BME280;10162;41.600;23.806;2023-08-12T02:11:13;95623.41;;;16.54;100.00
20003;BME280;10162;41.600;23.806;2023-08-12T02:13:40;95637.19;;;16.56;100.00
20003;BME280;10162;41.600;23.806;2023-08-12T02:16:06;95630.38;;;16.24;100.00
20003;BME280;10162;41.600;23.806;2023-08-12T02:18:32;95619.28;;;15.97;100.00
20003;BME280;10162;41.600;23.806;2023-08-12T02:20:58;95629.97;;;16.27;100.00
20003;BME280;10162;41.600;23.806;2023-08-12T02:23:24;95633.22;;;16.29;100.00
20003;BME280;10162;41.600;23.806;2023-08-12T02:25:52;95630.13;;;16.32;100.00
20003;BME280;10162;41.600;23.806;2023-08-12T02:28:19;95624.81;;;16.13;100.00
20003;BME280;10162;41.600;23.806;2023-08-12T02:30:44;95645.59;;;16.28;100.00
20003;BME280;10162;41.600;23.806;2023-08-12T02:33:30;95637.66;;;16.46;100.00
20003;BME280;10162;41.600;23.806;2023-08-12T02:35:57;95636.25;;;16.01;100.00
20003;BME280;10162;41.600;23.806;2023-08-12T02:38:24;95629.34;;;15.82;100.00
20003;BME280;10162;41.600;23.806;2023-08-12T02:40:50;95628.59;;;15.99;100.00
20003;BME280;10162;41.600;23.806;2023-08-12T02:43:17;95629.16;;;16.26;100.00
20003;BME280;10162;41.600;23.806;2023-08-12T02:45:43;95633.66;;;16.44;100.00
20003;BME280;10162;41.600;23.806;2023-08-12T02:48:12;95646.66;;;16.21;100.00
20003;BME280;10162;41.600;23.806;2023-08-12T02:50:39;95638.66;;;16.09;100.00
20003;BME280;10162;41.600;23.806;2023-08-12T02:53:06;95637.44;;;16.30;100.00
20003;BME280;10162;41.600;23.806;2023-08-12T02:55:34;95637.56;;;15.92;100.00
20003;BME280;10162;41.600;23.806;2023-08-12T02:58:00;95640.81;;;15.94;100.00
20003;BME280;10162;41.600;23.806;2023-08-12T03:00:27;95640.97;;;15.99;100.00
20003;BME280;10162;41.600;23.806;2023-08-12T03:03:08;95645.50;;;16.17;100.00
20003;BME280;10162;41.600;23.806;2023-08-12T03:05:37;95642.94;;;15.79;100.00
20003;BME280;10162;41.600;23.806;2023-08-12T03:08:04;95636.16;;;15.89;100.00
20003;BME280;10162;41.600;23.806;2023-08-12T03:10:30;95638.91;;;16.01;100.00
20003;BME280;10162;41.600;23.806;2023-08-12T03:12:56;95645.75;;;16.08;100.00
20003;BME280;10162;41.600;23.806;2023-08-12T03:15:23;95643.06;;;15.90;100.00
20003;BME280;10162;41.600;23.806;2023-08-12T03:17:49;95640.41;;;16.15;100.00
20003;BME280;10162;41.600;23.806;2023-08-12T03:20:16;95639.34;;;16.41;100.00
20003;BME280;10162;41.600;23.806;2023-08-12T03:22:46;95634.88;;;16.41;100.00
20003;BME280;10162;41.600;23.806;2023-08-12T03:25:13;95649.91;;;16.23;100.00
20003;BME280;10162;41.600;23.806;2023-08-12T03:27:42;95638.53;;;16.22;100.00
20003;BME280;10162;41.600;23.806;2023-08-12T03:30:09;95652.50;;;16.04;100.00
20003;BME280;10162;41.600;23.806;2023-08-12T03:32:35;95649.75;;;16.36;100.00
20003;BME280;10162;41.600;23.806;2023-08-12T03:35:03;95646.81;;;16.01;100.00
20003;BME280;10162;41.600;23.806;2023-08-12T03:37:30;95650.59;;;15.87;100.00
20003;BME280;10162;41.600;23.806;2023-08-12T03:39:56;95646.69;;;15.89;100.00
20003;BME280;10162;41.600;23.806;2023-08-12T03:42:37;95648.66;;;15.76;100.00
20003;BME280;10162;41.600;23.806;2023-08-12T03:45:03;95653.63;;;15.84;100.00
20003;BME280;10162;41.600;23.806;2023-08-12T03:47:29;95651.59;;;15.86;100.00
20003;BME280;10162;41.600;23.806;2023-08-12T03:49:56;95646.31;;;15.61;100.00
20003;BME280;10162;41.600;23.806;2023-08-12T03:52:39;95655.53;;;16.01;100.00
20003;BME280;10162;41.600;23.806;2023-08-12T03:55:06;95654.91;;;16.06;100.00
20003;BME280;10162;41.600;23.806;2023-08-12T03:57:32;95658.06;;;16.15;100.00
20003;BME280;10162;41.600;23.806;2023-08-12T03:59:59;95649.50;;;15.69;100.00
20003;BME280;10162;41.600;23.806;2023-08-12T04:02:39;95657.25;;;15.89;100.00
20003;BME280;10162;41.600;23.806;2023-08-12T04:05:06;95656.75;;;16.05;100.00
20003;BME280;10162;41.600;23.806;2023-08-12T04:07:32;95661.38;;;16.10;100.00
20003;BME280;10162;41.600;23.806;2023-08-12T04:09:58;95653.97;;;16.19;100.00
20003;BME280;10162;41.600;23.806;2023-08-12T04:12:33;95662.75;;;16.37;100.00
20003;BME280;10162;41.600;23.806;2023-08-12T04:14:59;95670.75;;;16.74;100.00
20003;BME280;10162;41.600;23.806;2023-08-12T04:17:27;95656.13;;;16.71;100.00
20003;BME280;10162;41.600;23.806;2023-08-12T04:19:55;95655.84;;;16.79;100.00
20003;BME280;10162;41.600;23.806;2023-08-12T04:22:27;95659.22;;;17.05;100.00
20003;BME280;10162;41.600;23.806;2023-08-12T04:24:55;95658.72;;;17.14;100.00
20003;BME280;10162;41.600;23.806;2023-08-12T04:27:20;95652.72;;;17.37;100.00
20003;BME280;10162;41.600;23.806;2023-08-12T04:29:46;95653.53;;;17.49;100.00
20003;BME280;10162;41.600;23.806;2023-08-12T04:32:12;95660.34;;;17.75;100.00
20003;BME280;10162;41.600;23.806;2023-08-12T04:34:39;95664.28;;;17.96;100.00
20003;BME280;10162;41.600;23.806;2023-08-12T04:37:05;95654.53;;;18.08;100.00
20003;BME280;10162;41.600;23.806;2023-08-12T04:39:32;95653.31;;;18.34;100.00
20003;BME280;10162;41.600;23.806;2023-08-12T04:42:04;95662.75;;;18.65;97.45
20003;BME280;10162;41.600;23.806;2023-08-12T04:44:30;95662.38;;;18.96;93.80
20003;BME280;10162;41.600;23.806;2023-08-12T04:46:56;95656.28;;;18.95;95.49
20003;BME280;10162;41.600;23.806;2023-08-12T04:49:22;95662.41;;;19.24;91.93
20003;BME280;10162;41.600;23.806;2023-08-12T04:51:59;95662.44;;;19.13;92.26
20003;BME280;10162;41.600;23.806;2023-08-12T04:54:27;95660.28;;;18.98;92.93
20003;BME280;10162;41.600;23.806;2023-08-12T04:56:53;95667.56;;;19.31;92.27
20003;BME280;10162;41.600;23.806;2023-08-12T04:59:20;95661.56;;;19.47;92.11
20003;BME280;10162;41.600;23.806;2023-08-12T05:01:54;95674.44;;;19.44;94.46
20003;BME280;10162;41.600;23.806;2023-08-12T05:04:21;95674.25;;;19.45;92.93
20003;BME280;10162;41.600;23.806;2023-08-12T05:06:46;95675.81;;;19.58;93.53
20003;BME280;10162;41.600;23.806;2023-08-12T05:09:13;95671.28;;;19.30;96.42
20003;BME280;10162;41.600;23.806;2023-08-12T05:11:44;95664.81;;;19.26;96.64
20003;BME280;10162;41.600;23.806;2023-08-12T05:14:11;95668.81;;;19.52;92.17
20003;BME280;10162;41.600;23.806;2023-08-12T05:16:36;95665.13;;;19.53;94.16
20003;BME280;10162;41.600;23.806;2023-08-12T05:19:03;95663.03;;;19.43;95.05
20003;BME280;10162;41.600;23.806;2023-08-12T05:21:53;95670.50;;;19.58;93.32
20003;BME280;10162;41.600;23.806;2023-08-12T05:24:19;95671.13;;;19.36;96.53
20003;BME280;10162;41.600;23.806;2023-08-12T05:26:44;95666.47;;;19.55;94.76
20003;BME280;10162;41.600;23.806;2023-08-12T05:29:14;95665.38;;;19.68;93.63
20003;BME280;10162;41.600;23.806;2023-08-12T05:31:42;95663.56;;;19.85;91.63
20003;BME280;10162;41.600;23.806;2023-08-12T05:34:08;95667.34;;;19.89;91.12
20003;BME280;10162;41.600;23.806;2023-08-12T05:36:35;95669.31;;;20.27;85.67
20003;BME280;10162;41.600;23.806;2023-08-12T05:39:00;95665.06;;;20.43;88.03
20003;BME280;10162;41.600;23.806;2023-08-12T05:41:35;95651.78;;;20.43;87.44
20003;BME280;10162;41.600;23.806;2023-08-12T05:44:03;95657.88;;;20.27;89.62
20003;BME280;10162;41.600;23.806;2023-08-12T05:46:29;95657.63;;;20.11;88.17
20003;BME280;10162;41.600;23.806;2023-08-12T05:48:55;95653.69;;;20.14;90.60
20003;BME280;10162;41.600;23.806;2023-08-12T05:51:21;95646.13;;;20.39;88.19
20003;BME280;10162;41.600;23.806;2023-08-12T05:53:48;95647.25;;;20.27;89.51
20003;BME280;10162;41.600;23.806;2023-08-12T05:56:14;95647.03;;;20.61;87.34
20003;BME280;10162;41.600;23.806;2023-08-12T05:58:39;95647.22;;;20.77;83.17
20003;BME280;10162;41.600;23.806;2023-08-12T06:01:06;95641.09;;;20.98;81.15
20003;BME280;10162;41.600;23.806;2023-08-12T06:03:33;95632.53;;;21.13;82.88
20003;BME280;10162;41.600;23.806;2023-08-12T06:05:59;95634.13;;;21.14;82.28
20003;BME280;10162;41.600;23.806;2023-08-12T06:08:25;95621.22;;;21.22;80.53
20003;BME280;10162;41.600;23.806;2023-08-12T06:10:51;95628.47;;;21.54;78.52
20003;BME280;10162;41.600;23.806;2023-08-12T06:13:17;95635.25;;;21.39;79.75
20003;BME280;10162;41.600;23.806;2023-08-12T06:15:43;95623.47;;;21.57;76.50
20003;BME280;10162;41.600;23.806;2023-08-12T06:18:09;95628.94;;;21.46;78.53
20003;BME280;10162;41.600;23.806;2023-08-12T06:20:34;95629.31;;;21.59;76.77
20003;BME280;10162;41.600;23.806;2023-08-12T06:23:08;95621.16;;;21.66;76.23
20003;BME280;10162;41.600;23.806;2023-08-12T06:25:35;95626.19;;;21.94;72.72
20003;BME280;10162;41.600;23.806;2023-08-12T06:28:02;95620.41;;;22.34;71.06
20003;BME280;10162;41.600;23.806;2023-08-12T06:30:30;95630.53;;;22.32;74.00
20003;BME280;10162;41.600;23.806;2023-08-12T06:32:56;95616.69;;;22.35;73.22
20003;BME280;10162;41.600;23.806;2023-08-12T06:35:21;95621.59;;;22.48;71.67
20003;BME280;10162;41.600;23.806;2023-08-12T06:37:47;95624.75;;;22.45;69.85
20003;BME280;10162;41.600;23.806;2023-08-12T06:40:14;95622.72;;;22.62;68.82
20003;BME280;10162;41.600;23.806;2023-08-12T06:42:42;95612.19;;;22.78;69.34
20003;BME280;10162;41.600;23.806;2023-08-12T06:45:09;95608.63;;;22.67;69.07
20003;BME280;10162;41.600;23.806;2023-08-12T06:47:35;95614.81;;;22.73;69.38
20003;BME280;10162;41.600;23.806;2023-08-12T06:50:02;95609.31;;;22.89;66.49
20003;BME280;10162;41.600;23.806;2023-08-12T06:52:41;95609.16;;;22.69;68.28
20003;BME280;10162;41.600;23.806;2023-08-12T06:55:07;95614.53;;;23.36;65.18
20003;BME280;10162;41.600;23.806;2023-08-12T06:57:33;95608.38;;;23.31;64.00
20003;BME280;10162;41.600;23.806;2023-08-12T07:00:01;95602.66;;;23.74;62.83
20003;BME280;10162;41.600;23.806;2023-08-12T07:02:29;95600.78;;;24.05;62.73
20003;BME280;10162;41.600;23.806;2023-08-12T07:04:56;95602.91;;;23.78;65.17
20003;BME280;10162;41.600;23.806;2023-08-12T07:07:22;95588.28;;;22.98;67.07
20003;BME280;10162;41.600;23.806;2023-08-12T07:09:48;95602.09;;;23.62;63.46
20003;BME280;10162;41.600;23.806;2023-08-12T07:12:44;95594.16;;;22.95;66.94
20003;BME280;10162;41.600;23.806;2023-08-12T07:15:10;95594.38;;;22.88;65.09
20003;BME280;10162;41.600;23.806;2023-08-12T07:17:36;95596.69;;;22.75;66.29
20003;BME280;10162;41.600;23.806;2023-08-12T07:20:02;95584.97;;;22.34;66.87
20003;BME280;10162;41.600;23.806;2023-08-12T07:22:53;95602.16;;;22.53;66.52
20003;BME280;10162;41.600;23.806;2023-08-12T07:25:20;95594.88;;;22.85;62.72
20003;BME280;10162;41.600;23.806;2023-08-12T07:27:46;95590.94;;;22.98;62.75
20003;BME280;10162;41.600;23.806;2023-08-12T07:30:12;95588.59;;;23.06;64.72
20003;BME280;10162;41.600;23.806;2023-08-12T07:32:39;95585.16;;;23.16;64.89
20003;BME280;10162;41.600;23.806;2023-08-12T07:35:05;95587.34;;;23.44;64.13
20003;BME280;10162;41.600;23.806;2023-08-12T07:37:31;95582.00;;;23.34;63.83
20003;BME280;10162;41.600;23.806;2023-08-12T07:40:10;95582.59;;;23.62;61.98
20003;BME280;10162;41.600;23.806;2023-08-12T07:42:46;95579.69;;;24.09;61.08
20003;BME280;10162;41.600;23.806;2023-08-12T07:45:11;95578.63;;;24.35;59.80
20003;BME280;10162;41.600;23.806;2023-08-12T07:47:37;95571.69;;;24.29;59.57
20003;BME280;10162;41.600;23.806;2023-08-12T07:50:03;95570.88;;;24.13;61.14
20003;BME280;10162;41.600;23.806;2023-08-12T07:52:46;95568.44;;;24.32;58.91
20003;BME280;10162;41.600;23.806;2023-08-12T07:55:14;95570.84;;;24.34;60.07
20003;BME280;10162;41.600;23.806;2023-08-12T07:57:40;95559.66;;;24.21;58.00
20003;BME280;10162;41.600;23.806;2023-08-12T08:00:06;95554.84;;;24.23;58.38
20003;BME280;10162;41.600;23.806;2023-08-12T08:02:33;95556.72;;;23.57;58.57
20003;BME280;10162;41.600;23.806;2023-08-12T08:04:59;95560.19;;;23.88;58.29
20003;BME280;10162;41.600;23.806;2023-08-12T08:07:25;95561.78;;;24.29;55.40
20003;BME280;10162;41.600;23.806;2023-08-12T08:09:52;95566.59;;;24.17;54.45
20003;BME280;10162;41.600;23.806;2023-08-12T08:12:18;95559.38;;;25.13;52.88
20003;BME280;10162;41.600;23.806;2023-08-12T08:14:44;95563.41;;;25.15;54.23
20003;BME280;10162;41.600;23.806;2023-08-12T08:17:09;95544.56;;;25.30;51.26
20003;BME280;10162;41.600;23.806;2023-08-12T08:19:35;95555.88;;;25.22;50.93
20003;BME280;10162;41.600;23.806;2023-08-12T08:22:01;95557.34;;;25.43;50.05
20003;BME280;10162;41.600;23.806;2023-08-12T08:24:30;95558.00;;;25.69;48.49
20003;BME280;10162;41.600;23.806;2023-08-12T08:26:56;95551.00;;;25.78;49.95
20003;BME280;10162;41.600;23.806;2023-08-12T08:29:22;95556.41;;;25.19;50.65
20003;BME280;10162;41.600;23.806;2023-08-12T08:31:48;95552.91;;;24.59;49.58
20003;BME280;10162;41.600;23.806;2023-08-12T08:34:14;95557.94;;;24.76;48.86
20003;BME280;10162;41.600;23.806;2023-08-12T08:36:40;95552.88;;;24.64;49.52
20003;BME280;10162;41.600;23.806;2023-08-12T08:39:07;95558.16;;;24.80;49.49
20003;BME280;10162;41.600;23.806;2023-08-12T08:41:38;95553.59;;;24.95;48.93
20003;BME280;10162;41.600;23.806;2023-08-12T08:44:08;95551.63;;;25.16;46.70
20003;BME280;10162;41.600;23.806;2023-08-12T08:46:34;95550.19;;;25.78;46.03
20003;BME280;10162;41.600;23.806;2023-08-12T08:49:02;95539.34;;;25.59;46.68
20003;BME280;10162;41.600;23.806;2023-08-12T08:51:30;95541.69;;;25.66;44.89
20003;BME280;10162;41.600;23.806;2023-08-12T08:53:57;95541.78;;;26.23;44.19
20003;BME280;10162;41.600;23.806;2023-08-12T08:56:23;95543.97;;;26.16;43.76
20003;BME280;10162;41.600;23.806;2023-08-12T08:58:49;95536.78;;;26.41;44.21
20003;BME280;10162;41.600;23.806;2023-08-12T09:01:18;95535.66;;;26.47;42.68
20003;BME280;10162;41.600;23.806;2023-08-12T09:03:46;95532.97;;;26.18;41.70
20003;BME280;10162;41.600;23.806;2023-08-12T09:06:13;95526.22;;;26.25;43.00
20003;BME280;10162;41.600;23.806;2023-08-12T09:08:41;95521.03;;;26.34;42.25
20003;BME280;10162;41.600;23.806;2023-08-12T09:11:09;95522.78;;;26.15;41.69
20003;BME280;10162;41.600;23.806;2023-08-12T09:13:36;95518.28;;;26.10;40.85
20003;BME280;10162;41.600;23.806;2023-08-12T09:16:01;95515.03;;;25.84;42.23
20003;BME280;10162;41.600;23.806;2023-08-12T09:18:29;95491.97;;;25.88;43.18
20003;BME280;10162;41.600;23.806;2023-08-12T09:20:55;95497.91;;;25.80;42.61
20003;BME280;10162;41.600;23.806;2023-08-12T09:23:21;95493.97;;;25.73;42.86
20003;BME280;10162;41.600;23.806;2023-08-12T09:25:46;95491.25;;;26.07;40.85
20003;BME280;10162;41.600;23.806;2023-08-12T09:28:14;95478.00;;;26.44;41.11
20003;BME280;10162;41.600;23.806;2023-08-12T09:30:40;95482.47;;;26.30;42.56
20003;BME280;10162;41.600;23.806;2023-08-12T09:33:07;95481.78;;;25.90;43.13
20003;BME280;10162;41.600;23.806;2023-08-12T09:35:34;95483.38;;;26.15;42.72
20003;BME280;10162;41.600;23.806;2023-08-12T09:38:09;95472.78;;;26.34;43.48
20003;BME280;10162;41.600;23.806;2023-08-12T09:40:39;95466.47;;;26.20;42.71
20003;BME280;10162;41.600;23.806;2023-08-12T09:43:05;95474.72;;;26.00;42.88
20003;BME280;10162;41.600;23.806;2023-08-12T09:45:32;95479.16;;;25.85;42.91
20003;BME280;10162;41.600;23.806;2023-08-12T09:47:58;95480.28;;;26.08;43.25
20003;BME280;10162;41.600;23.806;2023-08-12T09:50:25;95479.53;;;26.03;43.22
20003;BME280;10162;41.600;23.806;2023-08-12T09:52:52;95463.47;;;26.26;42.86
20003;BME280;10162;41.600;23.806;2023-08-12T09:55:19;95477.34;;;26.57;41.90
20003;BME280;10162;41.600;23.806;2023-08-12T09:57:48;95477.53;;;26.85;42.01
20003;BME280;10162;41.600;23.806;2023-08-12T10:00:19;95474.75;;;27.13;41.54
20003;BME280;10162;41.600;23.806;2023-08-12T10:02:47;95464.88;;;26.90;39.83
20003;BME280;10162;41.600;23.806;2023-08-12T10:05:43;95470.66;;;27.35;40.78
20003;BME280;10162;41.600;23.806;2023-08-12T10:08:09;95457.63;;;27.28;40.33
20003;BME280;10162;41.600;23.806;2023-08-12T10:10:35;95461.34;;;27.51;38.70
20003;BME280;10162;41.600;23.806;2023-08-12T10:13:02;95459.38;;;27.19;39.51
20003;BME280;10162;41.600;23.806;2023-08-12T10:15:32;95452.03;;;27.25;39.24
20003;BME280;10162;41.600;23.806;2023-08-12T10:17:58;95446.94;;;27.42;38.67
20003;BME280;10162;41.600;23.806;2023-08-12T10:20:24;95449.50;;;27.14;38.88
20003;BME280;10162;41.600;23.806;2023-08-12T10:22:51;95453.69;;;27.58;37.92
20003;BME280;10162;41.600;23.806;2023-08-12T10:25:20;95438.47;;;27.16;38.63
20003;BME280;10162;41.600;23.806;2023-08-12T10:27:50;95425.19;;;26.87;38.94
20003;BME280;10162;41.600;23.806;2023-08-12T10:30:16;95441.66;;;27.37;37.40
20003;BME280;10162;41.600;23.806;2023-08-12T10:32:49;95437.41;;;26.74;39.08
20003;BME280;10162;41.600;23.806;2023-08-12T10:35:17;95443.41;;;26.66;38.43
20003;BME280;10162;41.600;23.806;2023-08-12T10:37:48;95449.06;;;27.26;38.51
20003;BME280;10162;41.600;23.806;2023-08-12T10:40:22;95436.16;;;27.09;38.15
20003;BME280;10162;41.600;23.806;2023-08-12T10:42:59;95444.63;;;27.35;38.88
20003;BME280;10162;41.600;23.806;2023-08-12T10:45:52;95434.91;;;27.21;35.60
20003;BME280;10162;41.600;23.806;2023-08-12T10:48:24;95433.38;;;27.33;35.03
20003;BME280;10162;41.600;23.806;2023-08-12T10:50:55;95425.53;;;27.37;33.25
20003;BME280;10162;41.600;23.806;2023-08-12T10:53:27;95426.16;;;28.81;33.19
20003;BME280;10162;41.600;23.806;2023-08-12T10:56:03;95417.00;;;28.41;32.57
20003;BME280;10162;41.600;23.806;2023-08-12T10:58:34;95428.34;;;28.79;33.19
20003;BME280;10162;41.600;23.806;2023-08-12T11:01:13;95421.66;;;28.49;33.29
20003;BME280;10162;41.600;23.806;2023-08-12T11:03:50;95412.78;;;28.07;33.91
20003;BME280;10162;41.600;23.806;2023-08-12T11:06:22;95408.34;;;27.19;34.95
20003;BME280;10162;41.600;23.806;2023-08-12T11:08:56;95414.19;;;27.59;35.24
20003;BME280;10162;41.600;23.806;2023-08-12T11:11:24;95406.22;;;27.35;35.02
20003;BME280;10162;41.600;23.806;2023-08-12T11:13:55;95405.47;;;27.48;35.18
20003;BME280;10162;41.600;23.806;2023-08-12T11:16:37;95409.31;;;27.09;35.36
20003;BME280;10162;41.600;23.806;2023-08-12T11:19:04;95412.47;;;27.30;37.22
20003;BME280;10162;41.600;23.806;2023-08-12T11:21:31;95409.81;;;27.63;34.88
20003;BME280;10162;41.600;23.806;2023-08-12T11:23:57;95410.72;;;26.88;36.26
20003;BME280;10162;41.600;23.806;2023-08-12T11:26:23;95398.50;;;26.96;36.40
20003;BME280;10162;41.600;23.806;2023-08-12T11:28:50;95409.88;;;27.06;36.70
20003;BME280;10162;41.600;23.806;2023-08-12T11:31:19;95405.75;;;27.33;35.09
20003;BME280;10162;41.600;23.806;2023-08-12T11:33:44;95408.53;;;27.60;34.53
20003;BME280;10162;41.600;23.806;2023-08-12T11:36:10;95407.16;;;27.76;35.21
20003;BME280;10162;41.600;23.806;2023-08-12T11:38:37;95404.03;;;27.56;35.43
20003;BME280;10162;41.600;23.806;2023-08-12T11:41:03;95413.94;;;27.23;34.77
20003;BME280;10162;41.600;23.806;2023-08-12T11:43:31;95395.19;;;27.69;34.68
20003;BME280;10162;41.600;23.806;2023-08-12T11:45:58;95402.78;;;27.80;34.22
20003;BME280;10162;41.600;23.806;2023-08-12T11:48:25;95395.25;;;27.50;34.48
20003;BME280;10162;41.600;23.806;2023-08-12T11:50:51;95395.31;;;27.12;35.07
20003;BME280;10162;41.600;23.806;2023-08-12T11:53:19;95401.47;;;27.45;34.55
20003;BME280;10162;41.600;23.806;2023-08-12T11:55:45;95391.28;;;27.29;33.87
20003;BME280;10162;41.600;23.806;2023-08-12T11:58:13;95383.41;;;27.97;32.96
20003;BME280;10162;41.600;23.806;2023-08-12T12:00:39;95392.69;;;28.46;33.74
20003;BME280;10162;41.600;23.806;2023-08-12T12:03:04;95388.41;;;28.17;33.95
20003;BME280;10162;41.600;23.806;2023-08-12T12:05:32;95396.75;;;28.02;33.98
20003;BME280;10162;41.600;23.806;2023-08-12T12:08:00;95392.25;;;27.98;34.50
20003;BME280;10162;41.600;23.806;2023-08-12T12:10:29;95379.53;;;27.25;35.89
20003;BME280;10162;41.600;23.806;2023-08-12T12:12:55;95377.13;;;27.09;37.66
20003;BME280;10162;41.600;23.806;2023-08-12T12:15:21;95382.53;;;26.86;37.09
20003;BME280;10162;41.600;23.806;2023-08-12T12:17:49;95382.16;;;26.73;37.54
20003;BME280;10162;41.600;23.806;2023-08-12T12:20:15;95385.63;;;26.98;37.74
20003;BME280;10162;41.600;23.806;2023-08-12T12:22:43;95375.13;;;26.40;37.24
20003;BME280;10162;41.600;23.806;2023-08-12T12:25:16;95384.00;;;26.59;37.02
20003;BME280;10162;41.600;23.806;2023-08-12T12:27:47;95376.78;;;26.55;38.07
20003;BME280;10162;41.600;23.806;2023-08-12T12:30:15;95386.19;;;26.95;36.16
20003;BME280;10162;41.600;23.806;2023-08-12T12:32:41;95389.91;;;26.99;37.07
20003;BME280;10162;41.600;23.806;2023-08-12T12:35:07;95371.00;;;26.85;37.10
20003;BME280;10162;41.600;23.806;2023-08-12T12:37:33;95389.06;;;27.17;37.18
20003;BME280;10162;41.600;23.806;2023-08-12T12:39:59;95381.19;;;27.39;36.33
20003;BME280;10162;41.600;23.806;2023-08-12T12:42:25;95383.59;;;27.73;35.71
20003;BME280;10162;41.600;23.806;2023-08-12T12:44:51;95377.09;;;27.74;35.71
20003;BME280;10162;41.600;23.806;2023-08-12T12:47:17;95377.03;;;27.47;35.42
20003;BME280;10162;41.600;23.806;2023-08-12T12:49:44;95380.22;;;27.49;36.09
20003;BME280;10162;41.600;23.806;2023-08-12T12:52:14;95367.66;;;27.77;34.85
20003;BME280;10162;41.600;23.806;2023-08-12T12:54:40;95377.28;;;28.24;34.97
20003;BME280;10162;41.600;23.806;2023-08-12T12:57:07;95371.16;;;28.05;36.31
20003;BME280;10162;41.600;23.806;2023-08-12T12:59:33;95374.06;;;28.22;34.59
20003;BME280;10162;41.600;23.806;2023-08-12T13:02:03;95367.78;;;28.26;35.98